Kaw City, Oklahoma
Current Conditions -  °F | °C
As of 8:53 AM on Monday 24 Nov 2014 (Local Time) from KPNC Reporting Station
Clear Clear  
Wind Chill: 31°   Ceiling: Unl
Heat Index: 38°   Visibility: 10mi
Dew Point: 26°   Wind: 10mph
Humidity: 62%   Direction: 280°W
Pressure: 29.89"   Gusts: NA
Location:  36.78°N, 96.88°W
Report Text: KPNC 241453Z AUTO 28009KT 10SM CLR 03/M03 A2989 RMK AO2 SLP124 T00331033 53020
Loading
Personal Weather Stations






























Interactive Weather Map New forecast layout! Learn more

10-Day Weather Forecast

Advertisements
Track Severe Weather on mobile